createdAt,value
2022-10-29T01:17:21.195Z,101122.34
2022-10-29T01:20:41.513Z,101113.22
2022-10-29T01:23:18.123Z,101121.94
2022-10-29T01:26:11.611Z,101111.81
2022-10-29T01:29:10.396Z,101103.75
2022-10-29T01:32:02.068Z,101108.22
2022-10-29T01:34:42.006Z,101097.44
2022-10-29T01:37:41.794Z,101096.50
2022-10-29T01:40:38.671Z,101088.66
2022-10-29T01:46:17.016Z,101098.22
2022-10-29T01:48:51.640Z,101091.34
2022-10-29T01:51:28.507Z,101078.50
2022-10-29T01:53:59.450Z,101091.66
2022-10-29T01:56:27.579Z,101085.88
2022-10-29T01:58:59.797Z,101075.13
2022-10-29T02:01:41.597Z,101094.72
2022-10-29T02:04:41.847Z,101082.38
2022-10-29T02:07:44.093Z,101096.69
2022-10-29T02:10:25.710Z,101096.00
2022-10-29T02:12:56.196Z,101086.47
2022-10-29T02:15:48.277Z,101084.38
2022-10-29T02:18:17.520Z,101077.56
2022-10-29T02:20:47.470Z,101079.00
2022-10-29T02:23:16.773Z,101085.25
2022-10-29T02:25:44.884Z,101069.59
2022-10-29T02:51:32.008Z,101080.81
2022-10-29T02:54:00.182Z,101083.19
2022-10-29T02:56:28.111Z,101077.69
2022-10-29T02:58:55.894Z,101092.41
2022-10-29T03:01:24.165Z,101063.16
2022-10-29T03:03:54.697Z,101071.03
2022-10-29T03:06:42.455Z,101069.91
2022-10-29T03:09:10.926Z,101075.81
2022-10-29T03:11:38.632Z,101060.72
2022-10-29T03:14:06.679Z,101062.22
2022-10-29T03:16:34.711Z,101074.31
2022-10-29T03:19:02.710Z,101054.16
2022-10-29T03:21:30.790Z,101056.84
2022-10-29T03:23:59.660Z,101062.06
2022-10-29T03:26:27.836Z,101054.09
2022-10-29T03:28:56.565Z,101038.34
2022-10-29T03:31:24.932Z,101042.94
2022-10-29T03:33:53.206Z,101050.81
2022-10-29T03:36:20.993Z,101046.25
2022-10-29T03:38:49.180Z,101043.91
2022-10-29T03:41:17.533Z,101051.13
2022-10-29T03:43:46.004Z,101062.06
2022-10-29T03:46:13.856Z,101055.47
2022-10-29T03:48:42.064Z,101064.56
2022-10-29T03:51:11.181Z,101060.28
2022-10-29T03:53:40.781Z,101049.84
2022-10-29T03:56:10.585Z,101055.25
2022-10-29T03:58:38.771Z,101062.31
2022-10-29T04:01:09.758Z,101059.84
2022-10-29T04:03:42.140Z,101069.63
2022-10-29T04:06:15.782Z,101057.22
2022-10-29T04:08:44.085Z,101054.59
2022-10-29T04:11:13.838Z,101052.84
2022-10-29T04:13:41.668Z,101074.69
2022-10-29T04:16:09.880Z,101072.88
2022-10-29T04:18:37.767Z,101063.25
2022-10-29T04:29:34.389Z,101057.66
2022-10-29T04:32:02.273Z,101057.66
2022-10-29T04:34:30.511Z,101057.00
2022-10-29T04:36:58.360Z,101073.13
2022-10-29T04:39:26.318Z,101072.47
2022-10-29T04:41:55.733Z,101063.75
2022-10-29T04:44:23.485Z,101080.56
2022-10-29T04:46:51.735Z,101079.69
2022-10-29T04:49:19.857Z,101077.97
2022-10-29T04:51:47.662Z,101079.69
2022-10-29T04:54:17.605Z,101080.66
2022-10-29T04:56:45.712Z,101069.47
2022-10-29T04:59:13.685Z,101078.03
2022-10-29T05:01:41.667Z,101072.06
2022-10-29T05:04:09.863Z,101059.69
2022-10-29T05:06:38.062Z,101063.38
2022-10-29T05:09:06.291Z,101064.84
2022-10-29T05:11:36.840Z,101070.03
2022-10-29T05:14:04.707Z,101061.19
2022-10-29T05:16:32.868Z,101065.78
2022-10-29T05:19:01.316Z,101061.28
2022-10-29T05:21:29.292Z,101063.09
2022-10-29T05:23:57.959Z,101058.00
2022-10-29T05:26:25.705Z,101055.75
2022-10-29T05:28:54.282Z,101064.47
2022-10-29T05:31:22.086Z,101081.66
2022-10-29T05:33:53.894Z,101084.59
2022-10-29T05:36:24.193Z,101080.47
2022-10-29T05:38:52.118Z,101069.28
2022-10-29T05:41:21.117Z,101074.56
2022-10-29T05:43:50.830Z,101074.53
2022-10-29T05:46:18.867Z,101074.53
2022-10-29T05:48:47.601Z,101079.81
2022-10-29T05:51:16.766Z,101077.91
2022-10-29T05:53:44.966Z,101054.19
2022-10-29T05:56:13.057Z,101057.78
2022-10-29T05:58:42.598Z,101063.72
2022-10-29T06:01:12.039Z,101053.94
2022-10-29T06:03:40.263Z,101063.84
2022-10-29T06:06:09.195Z,101068.94
2022-10-29T06:08:37.466Z,101072.28
2022-10-29T06:11:05.505Z,101062.44
2022-10-29T06:13:33.563Z,101075.69
2022-10-29T06:16:01.579Z,101052.56
2022-10-29T06:18:29.883Z,101061.94
2022-10-29T06:21:01.730Z,101063.66
2022-10-29T06:23:30.763Z,101076.88
2022-10-29T06:26:01.956Z,101067.09
2022-10-29T06:28:33.650Z,101054.97
2022-10-29T06:31:02.963Z,101073.09
2022-10-29T06:33:33.421Z,101059.25
2022-10-29T06:36:02.413Z,101074.09
2022-10-29T06:38:30.810Z,101078.47
2022-10-29T06:40:59.409Z,101072.28
2022-10-29T06:43:27.400Z,101079.47
2022-10-29T06:45:55.823Z,101080.34
2022-10-29T06:48:24.171Z,101072.44
2022-10-29T06:50:52.491Z,101064.69
2022-10-29T06:53:21.041Z,101073.25
2022-10-29T06:55:49.186Z,101068.16
2022-10-29T06:58:21.052Z,101068.16
2022-10-29T07:00:49.779Z,101064.59
2022-10-29T07:03:22.491Z,101070.94
2022-10-29T07:05:57.313Z,101075.13
2022-10-29T07:08:29.098Z,101065.69
2022-10-29T07:10:57.725Z,101085.78
2022-10-29T07:13:26.010Z,101087.53
2022-10-29T07:15:54.027Z,101087.53
2022-10-29T07:18:22.680Z,101077.44
2022-10-29T07:20:52.344Z,101074.50
2022-10-29T07:23:20.492Z,101062.88
2022-10-29T07:25:53.605Z,101081.81
2022-10-29T07:28:23.251Z,101078.84
2022-10-29T07:30:53.391Z,101079.69
2022-10-29T07:33:21.358Z,101080.38
2022-10-29T07:35:49.742Z,101092.59
2022-10-29T07:38:18.201Z,101086.97
2022-10-29T07:40:50.728Z,101091.66
2022-10-29T07:43:20.971Z,101092.53
2022-10-29T07:45:51.026Z,101097.47
2022-10-29T07:48:20.940Z,101087.56
2022-10-29T07:50:50.063Z,101077.88
2022-10-29T07:53:17.989Z,101098.69
2022-10-29T07:55:56.086Z,101093.78
2022-10-29T07:58:26.105Z,101095.69
2022-10-29T08:00:55.240Z,101109.63
2022-10-29T08:03:23.375Z,101114.91
2022-10-29T08:05:56.305Z,101097.28
2022-10-29T08:08:25.314Z,101107.31
2022-10-29T08:10:53.337Z,101109.84
2022-10-29T08:13:21.449Z,101105.91
2022-10-29T08:15:50.279Z,101101.31
2022-10-29T08:18:18.617Z,101115.59
2022-10-29T08:20:47.257Z,101115.25
2022-10-29T08:23:15.841Z,101113.28
2022-10-29T08:25:44.842Z,101120.88
2022-10-29T08:28:15.653Z,101109.78
2022-10-29T08:30:44.859Z,101094.34
2022-10-29T08:33:16.912Z,101093.16
2022-10-29T08:35:44.875Z,101093.94
2022-10-29T08:38:15.328Z,101084.41
2022-10-29T08:41:17.255Z,101102.34
2022-10-29T08:44:14.782Z,101105.09
2022-10-29T08:47:01.287Z,101099.09
2022-10-29T08:49:45.627Z,101095.03
2022-10-29T08:52:24.368Z,101094.31
2022-10-29T08:55:13.847Z,101099.78
2022-10-29T08:57:59.658Z,101110.75
2022-10-29T09:00:38.681Z,101098.56
2022-10-29T09:03:13.117Z,101088.91
2022-10-29T09:06:16.020Z,101087.13
2022-10-29T09:09:38.773Z,101093.69
2022-10-29T09:12:30.867Z,101097.06
2022-10-29T09:15:26.371Z,101087.75
2022-10-29T09:18:19.365Z,101095.03
2022-10-29T09:21:14.067Z,101092.63
2022-10-29T09:24:15.506Z,101098.59
2022-10-29T09:27:08.086Z,101090.59
2022-10-29T09:29:58.958Z,101100.81
2022-10-29T09:32:59.835Z,101080.09
2022-10-29T09:35:49.711Z,101082.78
2022-10-29T09:38:24.536Z,101078.19
2022-10-29T09:40:53.009Z,101085.63
2022-10-29T09:43:47.248Z,101080.72
2022-10-29T09:46:39.871Z,101087.75
2022-10-29T09:50:08.633Z,101079.25
2022-10-29T09:52:43.466Z,101085.75
2022-10-29T09:55:45.380Z,101075.41
2022-10-29T09:58:25.391Z,101078.78
2022-10-29T10:00:57.156Z,101083.41
2022-10-29T10:03:45.918Z,101083.47
2022-10-29T10:06:17.215Z,101070.28
2022-10-29T10:09:01.074Z,101076.66
2022-10-29T10:11:52.882Z,101081.81
2022-10-29T10:14:24.159Z,101068.09
2022-10-29T10:17:00.566Z,101062.47
2022-10-29T10:19:32.853Z,101068.09
2022-10-29T10:22:04.505Z,101075.50
2022-10-29T10:24:36.019Z,101064.25
2022-10-29T10:27:19.612Z,101063.94
2022-10-29T10:30:18.292Z,101055.72
2022-10-29T10:33:19.921Z,101049.47
2022-10-29T10:35:48.179Z,101047.03
2022-10-29T10:38:16.623Z,101032.13
2022-10-29T10:40:53.595Z,101038.75
2022-10-29T10:43:25.924Z,101032.06
2022-10-29T10:46:06.771Z,101016.03
2022-10-29T10:51:32.538Z,101026.22
2022-10-29T10:54:07.227Z,101018.03
2022-10-29T10:57:13.211Z,101015.88
2022-10-29T11:00:02.532Z,101004.38
2022-10-29T11:02:56.441Z,100990.44
2022-10-29T11:06:08.846Z,100993.13
2022-10-29T11:08:48.721Z,100988.47
2022-10-29T11:11:27.865Z,100986.66
2022-10-29T11:14:04.184Z,100984.38
2022-10-29T11:16:53.059Z,100986.88
2022-10-29T11:19:41.673Z,100976.81
2022-10-29T11:22:53.222Z,100976.50
2022-10-29T11:25:29.747Z,100980.06
2022-10-29T11:28:23.754Z,100959.94
2022-10-29T11:31:00.225Z,100948.25
2022-10-29T11:33:59.469Z,100964.16
2022-10-29T11:36:34.804Z,100966.47
2022-10-29T11:39:19.410Z,100961.22
2022-10-29T11:42:01.518Z,100956.25
2022-10-29T11:44:37.407Z,100942.72
2022-10-29T11:48:03.084Z,100929.91
2022-10-29T11:51:07.657Z,100936.69
2022-10-29T11:54:01.075Z,100922.94
2022-10-29T11:56:56.767Z,100922.22
2022-10-29T11:59:37.862Z,100922.22
2022-10-29T12:02:40.747Z,100918.97
2022-10-29T12:06:17.542Z,100894.56
2022-10-29T12:09:18.738Z,100901.19
2022-10-29T12:12:08.454Z,100889.97
2022-10-29T12:14:47.550Z,100898.88
2022-10-29T12:17:33.411Z,100888.81
2022-10-29T12:20:41.601Z,100890.84
2022-10-29T12:23:35.317Z,100892.22
2022-10-29T12:26:36.156Z,100882.84
2022-10-29T12:29:44.297Z,100882.00
2022-10-29T12:33:20.220Z,100882.22
2022-10-29T12:38:54.120Z,100882.50
2022-10-29T12:41:48.742Z,100886.69
2022-10-29T12:44:35.689Z,100887.19
2022-10-29T12:47:18.359Z,100891.25
2022-10-29T12:50:16.494Z,100887.31
2022-10-29T12:53:15.692Z,100883.63
2022-10-29T12:55:46.755Z,100872.63
2022-10-29T12:58:42.720Z,100882.59
2022-10-29T13:01:57.176Z,100869.56
2022-10-29T13:04:31.756Z,100866.47
2022-10-29T13:07:06.617Z,100861.66
2022-10-29T13:09:37.159Z,100840.66
2022-10-29T13:12:11.713Z,100855.00
2022-10-29T13:14:52.525Z,100856.63
2022-10-29T13:17:27.531Z,100841.28
2022-10-29T13:20:39.638Z,100837.97
2022-10-29T13:23:56.648Z,100833.78
2022-10-29T13:27:16.195Z,100831.53
2022-10-29T13:29:50.513Z,100833.50
2022-10-29T13:32:39.002Z,100833.25
2022-10-29T13:35:27.407Z,100832.16
2022-10-29T13:38:08.625Z,100823.03
2022-10-29T13:40:41.514Z,100817.84
2022-10-29T13:43:30.572Z,100812.78
2022-10-29T13:46:26.479Z,100816.34
2022-10-29T13:48:58.001Z,100816.84
2022-10-29T13:51:50.031Z,100816.34
2022-10-29T13:54:39.328Z,100797.44
2022-10-29T13:57:13.396Z,100803.63
2022-10-29T13:59:54.236Z,100795.50
2022-10-29T14:02:39.841Z,100805.34
2022-10-29T14:05:38.031Z,100793.88
2022-10-29T14:08:49.090Z,100799.16
2022-10-29T14:11:38.297Z,100799.59
2022-10-29T14:14:29.147Z,100784.53
2022-10-29T14:17:18.993Z,100789.47
2022-10-29T14:19:51.303Z,100766.75
2022-10-29T14:22:19.078Z,100787.72
2022-10-29T14:24:47.454Z,100784.41
2022-10-29T14:27:15.983Z,100792.41
2022-10-29T14:29:44.856Z,100782.06
2022-10-29T14:32:15.707Z,100783.16
2022-10-29T14:34:52.283Z,100789.72
2022-10-29T14:37:36.035Z,100800.31
2022-10-29T14:40:26.823Z,100799.09
2022-10-29T14:42:56.862Z,100801.59
2022-10-29T14:45:31.266Z,100790.00
2022-10-29T14:48:09.082Z,100787.66
2022-10-29T14:50:37.157Z,100808.88
2022-10-29T14:53:26.669Z,100808.00
2022-10-29T14:55:55.129Z,100797.88
2022-10-29T14:58:34.210Z,100812.81
2022-10-29T15:01:15.004Z,100805.31
2022-10-29T15:03:43.278Z,100795.19
2022-10-29T15:06:27.260Z,100797.63
2022-10-29T15:09:03.687Z,100798.75
2022-10-29T15:11:38.364Z,100796.91
2022-10-29T15:14:25.440Z,100801.47
2022-10-29T15:16:53.743Z,100798.38
2022-10-29T15:19:22.865Z,100794.06
2022-10-29T15:21:51.121Z,100786.63
2022-10-29T15:24:24.764Z,100798.97
2022-10-29T15:26:58.962Z,100791.31
2022-10-29T15:29:35.409Z,100795.75
2022-10-29T15:32:11.259Z,100787.97
2022-10-29T15:34:40.775Z,100791.78
2022-10-29T15:37:21.523Z,100795.25
2022-10-29T15:40:18.229Z,100788.94
2022-10-29T15:42:46.835Z,100788.06
2022-10-29T15:45:21.653Z,100784.50
2022-10-29T15:48:46.194Z,100794.59
2022-10-29T15:51:33.193Z,100786.31
2022-10-29T15:54:03.659Z,100791.34
2022-10-29T15:56:33.235Z,100782.81
2022-10-29T15:59:02.079Z,100785.28
2022-10-29T16:25:32.316Z,100780.63
2022-10-29T16:28:39.556Z,100782.09
2022-10-29T16:31:29.648Z,100784.03
2022-10-29T16:42:38.345Z,100773.38
2022-10-29T16:45:10.185Z,100791.75
2022-10-29T16:47:38.354Z,100770.97
2022-10-29T16:50:07.450Z,100779.72
2022-10-29T16:52:35.348Z,100780.81
2022-10-29T16:55:03.854Z,100783.75
2022-10-29T16:57:31.731Z,100777.91
2022-10-29T16:59:59.492Z,100786.56
2022-10-29T17:02:28.390Z,100783.53
2022-10-29T17:04:56.259Z,100799.03
2022-10-29T17:07:25.363Z,100801.63
2022-10-29T17:09:54.177Z,100786.16
2022-10-29T17:12:22.522Z,100795.88
2022-10-29T17:14:50.882Z,100798.94
2022-10-29T17:17:19.505Z,100798.19
2022-10-29T17:19:51.281Z,100799.28
2022-10-29T17:22:19.819Z,100792.34
2022-10-29T17:24:48.442Z,100805.63
2022-10-29T17:27:16.996Z,100796.56
2022-10-29T17:29:46.443Z,100797.66
2022-10-29T17:32:14.502Z,100806.41
2022-10-29T17:34:44.766Z,100796.78
2022-10-29T17:37:12.742Z,100807.94
2022-10-29T17:39:41.509Z,100805.34
2022-10-29T17:42:10.378Z,100811.06
2022-10-29T17:44:40.856Z,100818.53
2022-10-29T17:47:09.272Z,100813.13
2022-10-29T17:49:39.142Z,100813.44
2022-10-29T17:52:07.660Z,100798.94
2022-10-29T17:54:35.986Z,100812.69
2022-10-29T17:57:04.348Z,100799.78
2022-10-29T17:59:34.001Z,100819.09
2022-10-29T18:02:04.281Z,100813.56
2022-10-29T18:04:33.037Z,100810.19
2022-10-29T18:07:02.791Z,100815.50
2022-10-29T18:09:32.914Z,100804.66
2022-10-29T18:12:02.375Z,100821.53
2022-10-29T18:14:34.635Z,100811.34
2022-10-29T18:17:03.408Z,100811.75
2022-10-29T18:19:34.033Z,100817.28
2022-10-29T18:22:02.766Z,100801.06
2022-10-29T18:24:30.923Z,100812.44
2022-10-29T18:26:59.108Z,100812.50
2022-10-29T18:29:27.696Z,100821.59
2022-10-29T18:31:55.729Z,100814.13
2022-10-29T18:34:23.968Z,100822.13
2022-10-29T18:36:52.103Z,100815.22
2022-10-29T18:39:21.063Z,100807.63
2022-10-29T18:41:49.444Z,100818.31
2022-10-29T18:44:18.151Z,100814.31
2022-10-29T18:46:46.705Z,100817.97
2022-10-29T18:49:17.888Z,100806.63
2022-10-29T18:51:46.069Z,100813.63
2022-10-29T18:54:14.982Z,100809.88
2022-10-29T18:56:44.075Z,100804.66
2022-10-29T18:59:12.974Z,100807.06
2022-10-29T19:01:41.161Z,100798.41
2022-10-29T19:04:14.600Z,100794.84
2022-10-29T19:06:43.953Z,100801.31
2022-10-29T19:09:15.140Z,100784.78
2022-10-29T19:11:43.885Z,100798.06
2022-10-29T19:14:14.508Z,100803.44
2022-10-29T19:16:51.507Z,100810.81
2022-10-29T19:19:22.954Z,100800.59
2022-10-29T19:21:54.077Z,100796.66
2022-10-29T19:24:22.665Z,100811.78
2022-10-29T19:26:51.594Z,100792.13
2022-10-29T19:29:20.274Z,100789.66
2022-10-29T19:31:48.815Z,100800.13
2022-10-29T19:34:17.241Z,100779.25
2022-10-29T19:36:45.395Z,100798.72
2022-10-29T19:39:13.727Z,100794.06
2022-10-29T19:41:42.027Z,100796.97
2022-10-29T19:44:10.360Z,100801.50
2022-10-29T19:46:39.029Z,100803.34
2022-10-29T19:49:08.095Z,100800.75
2022-10-29T19:51:36.600Z,100795.75
2022-10-29T19:54:07.370Z,100794.91
2022-10-29T19:56:35.615Z,100794.63
2022-10-29T19:59:05.740Z,100792.88
2022-10-29T20:01:38.752Z,100805.50
2022-10-29T20:04:11.773Z,100802.91
2022-10-29T20:06:44.048Z,100800.81
2022-10-29T20:09:12.198Z,100803.63
2022-10-29T20:11:41.964Z,100801.34
2022-10-29T20:14:10.417Z,100803.53
2022-10-29T20:16:39.731Z,100813.47
2022-10-29T20:19:09.208Z,100805.59
2022-10-29T20:21:38.369Z,100809.34
2022-10-29T20:24:06.798Z,100814.72
2022-10-29T20:26:35.052Z,100802.63
2022-10-29T20:29:03.447Z,100809.72
2022-10-29T20:31:34.731Z,100805.69
2022-10-29T20:34:06.305Z,100812.84
2022-10-29T20:36:36.292Z,100818.22
2022-10-29T20:39:04.869Z,100823.50
2022-10-29T20:41:33.693Z,100829.47
2022-10-29T20:44:03.703Z,100817.91
2022-10-29T20:46:32.076Z,100816.47
2022-10-29T20:49:01.197Z,100833.13
2022-10-29T20:51:30.895Z,100838.63
2022-10-29T20:54:01.204Z,100821.97
2022-10-29T20:56:31.219Z,100824.16
2022-10-29T20:59:02.939Z,100834.16
2022-10-29T21:01:33.046Z,100841.28
2022-10-29T21:04:01.920Z,100844.88
2022-10-29T21:06:30.463Z,100831.00
2022-10-29T21:08:58.708Z,100841.19
2022-10-29T21:11:26.563Z,100849.19
2022-10-29T21:13:54.948Z,100831.06
2022-10-29T21:16:28.401Z,100841.72
2022-10-29T21:19:01.765Z,100839.78
2022-10-29T21:21:31.978Z,100822.34
2022-10-29T21:24:00.240Z,100829.34
2022-10-29T21:26:30.254Z,100830.72
2022-10-29T21:28:59.976Z,100843.25
2022-10-29T21:31:27.846Z,100840.66
2022-10-29T21:33:56.990Z,100829.66
2022-10-29T21:36:24.944Z,100836.03
2022-10-29T21:38:52.822Z,100836.13
2022-10-29T21:41:20.744Z,100826.38
2022-10-29T21:43:48.876Z,100830.06
2022-10-29T21:46:18.040Z,100835.25
2022-10-29T21:48:47.740Z,100838.03
2022-10-29T21:51:17.353Z,100838.16
2022-10-29T21:53:47.066Z,100831.00
2022-10-29T21:56:16.678Z,100835.25
2022-10-29T21:58:45.353Z,100833.88
2022-10-29T22:01:17.922Z,100837.97
2022-10-29T22:03:47.618Z,100832.75
2022-10-29T22:06:20.210Z,100828.28
2022-10-29T22:08:57.164Z,100833.63
2022-10-29T22:11:27.141Z,100830.19
2022-10-29T22:13:55.439Z,100843.78
2022-10-29T22:16:23.436Z,100826.94
2022-10-29T22:18:51.608Z,100829.63
2022-10-29T22:21:23.011Z,100820.88
2022-10-29T22:23:56.377Z,100832.72
2022-10-29T22:26:28.891Z,100825.31
2022-10-29T22:28:57.478Z,100821.84
2022-10-29T22:31:25.928Z,100823.16
2022-10-29T22:33:54.529Z,100818.94
2022-10-29T22:36:26.090Z,100827.81
2022-10-29T22:38:58.976Z,100820.06
2022-10-29T22:41:28.921Z,100824.69
2022-10-29T22:43:59.263Z,100830.09
2022-10-29T22:46:29.121Z,100817.75
2022-10-29T22:48:57.755Z,100813.25
2022-10-29T22:51:29.395Z,100810.66
2022-10-29T22:53:58.980Z,100825.94
2022-10-29T22:56:34.402Z,100819.78
2022-10-29T22:59:07.441Z,100820.16
2022-10-29T23:01:40.602Z,100817.06
2022-10-29T23:04:12.271Z,100815.09
2022-10-29T23:06:40.242Z,100813.88
2022-10-29T23:09:08.937Z,100828.13
2022-10-29T23:11:39.233Z,100844.19
2022-10-29T23:14:07.320Z,100838.03
2022-10-29T23:16:37.388Z,100837.00
2022-10-29T23:19:06.728Z,100831.88
2022-10-29T23:21:34.949Z,100827.34
2022-10-29T23:24:03.588Z,100823.91
2022-10-29T23:26:31.528Z,100834.38
2022-10-29T23:28:59.369Z,100824.06
2022-10-29T23:31:29.352Z,100836.13
2022-10-29T23:33:58.932Z,100821.97
2022-10-29T23:36:27.980Z,100827.25
2022-10-29T23:39:01.764Z,100819.38
2022-10-29T23:41:31.421Z,100818.09
2022-10-29T23:44:00.243Z,100811.91
2022-10-29T23:46:28.979Z,100812.13
2022-10-29T23:48:57.161Z,100806.13
2022-10-29T23:51:24.960Z,100805.06
2022-10-29T23:53:56.500Z,100786.50
2022-10-29T23:56:26.188Z,100784.78
2022-10-29T23:58:54.314Z,100790.75
